Time;durP1;ratioP1;P1;durP2;ratioP2;P2;SDS_P1;SDS_P2;PMS_P1;PMS_P2;Temp;Humidity;BMP_temperature;BMP_pressure;BME280_temperature;BME280_humidity;BME280_pressure;Samples;Min_cycle;Max_cycle;Signal;HPM_P1;HPM_P2
2022/12/01 00:01:11;;;;;;;8.30;2.20;;;4.30;96.10;3.30;96336.00;;;;5034064;28;20239;-59
2022/12/01 00:03:39;;;;;;;2.53;2.33;;;4.30;95.90;3.20;96343.00;;;;5033976;28;20512;-59
2022/12/01 00:06:09;;;;;;;2.33;2.13;;;4.20;96.00;3.20;96341.00;;;;5033981;28;20239;-59
2022/12/01 00:08:36;;;;;;;2.70;2.60;;;4.20;95.90;3.30;96348.00;;;;5033955;28;20200;-57
2022/12/01 00:11:07;;;;;;;3.73;2.53;;;4.20;96.40;3.10;96342.00;;;;5034036;28;20739;-59
2022/12/01 00:13:35;;;;;;;6.80;3.77;;;4.20;96.30;3.10;96349.00;;;;5033852;28;20255;-58
2022/12/01 00:16:10;;;;;;;2.33;2.07;;;4.10;97.00;3.20;96336.00;;;;5033843;28;20220;-59
2022/12/01 00:18:37;;;;;;;3.10;2.80;;;4.20;96.70;3.10;96337.00;;;;5016278;28;20228;-59
2022/12/01 00:21:03;;;;;;;3.00;2.80;;;4.10;96.40;3.10;96344.00;;;;5033905;28;20230;-60
2022/12/01 00:23:30;;;;;;;5.07;3.00;;;4.10;96.40;3.00;96327.00;;;;5016341;28;20203;-59
2022/12/01 00:26:03;;;;;;;4.50;3.17;;;4.10;96.00;3.10;96340.00;;;;5033876;28;20197;-59
2022/12/01 00:28:29;;;;;;;3.60;3.40;;;4.10;96.40;3.10;96337.00;;;;5033731;28;20208;-58
2022/12/01 00:30:56;;;;;;;4.90;3.63;;;4.10;96.20;3.10;96336.00;;;;5033994;28;20221;-59
2022/12/01 00:33:26;;;;;;;3.77;3.47;;;4.20;95.80;3.00;96334.00;;;;5033663;28;20276;-62
2022/12/01 00:35:58;;;;;;;3.60;3.27;;;4.10;96.00;3.00;96331.00;;;;5033164;28;20220;-58
2022/12/01 00:38:28;;;;;;;3.67;3.27;;;4.00;96.20;3.10;96346.00;;;;5033633;28;20295;-58
2022/12/01 00:40:54;;;;;;;14.43;3.70;;;4.10;96.60;3.10;96349.00;;;;5033501;28;20246;-59
2022/12/01 00:43:21;;;;;;;3.20;3.00;;;4.10;96.10;3.20;96337.00;;;;5033509;28;20232;-59
2022/12/01 00:45:47;;;;;;;1.80;1.70;;;4.10;95.70;3.10;96338.00;;;;5033477;28;20208;-59
2022/12/01 00:48:13;;;;;;;5.87;2.73;;;4.10;95.40;3.10;96341.00;;;;5016072;28;20204;-59
2022/12/01 00:50:43;;;;;;;5.90;3.10;;;4.10;95.40;3.20;96326.00;;;;5015940;28;20205;-58
2022/12/01 00:53:10;;;;;;;3.00;2.77;;;4.10;95.40;3.10;96337.00;;;;5015933;28;20211;-59
2022/12/01 00:55:36;;;;;;;3.60;3.03;;;4.10;95.10;3.10;96341.00;;;;5016064;28;20247;-58
2022/12/01 00:58:03;;;;;;;2.67;2.47;;;4.10;95.20;3.10;96343.00;;;;5015844;28;20207;-58
2022/12/01 01:00:31;;;;;;;4.13;3.77;;;4.10;95.40;3.00;96338.00;;;;5033278;28;20281;-59
2022/12/01 01:02:58;;;;;;;5.93;3.17;;;4.00;95.30;3.00;96330.00;;;;5033281;28;20222;-58
2022/12/01 01:05:24;;;;;;;1.93;1.83;;;4.00;95.30;3.00;96335.00;;;;5015784;28;20212;-57
2022/12/01 01:07:54;;;;;;;7.10;4.20;;;4.00;95.60;3.00;96349.00;;;;5033176;28;20261;-59
2022/12/01 01:10:21;;;;;;;5.70;3.57;;;4.00;95.30;3.00;96354.00;;;;5033221;28;20208;-61
2022/12/01 01:12:47;;;;;;;3.13;2.93;;;4.00;95.80;3.00;96346.00;;;;5015996;28;20220;-59
2022/12/01 01:15:14;;;;;;;2.37;2.23;;;4.00;95.50;3.10;96353.00;;;;5033165;28;20675;-59
2022/12/01 01:17:41;;;;;;;4.17;3.77;;;4.10;95.40;3.00;96332.00;;;;5033166;28;20197;-58
2022/12/01 01:20:10;;;;;;;3.97;3.67;;;4.00;95.30;3.00;96356.00;;;;5015455;28;20387;-59
2022/12/01 01:22:37;;;;;;;4.40;3.87;;;4.00;95.00;3.00;96353.00;;;;5015851;28;20239;-59
2022/12/01 01:25:07;;;;;;;2.53;2.33;;;4.00;95.30;3.00;96358.00;;;;5033147;28;20204;-61
2022/12/01 01:27:34;;;;;;;5.53;2.60;;;4.00;94.50;3.00;96350.00;;;;5033091;28;20687;-61
2022/12/01 01:30:00;;;;;;;4.20;3.80;;;4.00;94.40;3.00;96355.00;;;;5015671;28;20275;-61
2022/12/01 01:32:31;;;;;;;4.53;3.80;;;4.00;94.60;2.90;96365.00;;;;5033389;28;20263;-62
2022/12/01 01:35:09;;;;;;;2.50;2.40;;;3.90;95.00;2.90;96359.00;;;;5015555;28;20220;-59
2022/12/01 01:37:35;;;;;;;3.73;2.90;;;3.90;95.30;2.90;96371.00;;;;5015736;28;20208;-63
2022/12/01 01:40:02;;;;;;;8.37;3.90;;;3.90;95.30;3.00;96359.00;;;;5032942;28;20205;-57
2022/12/01 01:42:29;;;;;;;6.10;4.07;;;3.90;95.50;3.00;96363.00;;;;5032866;28;20201;-59
2022/12/01 01:44:58;;;;;;;3.57;3.27;;;4.00;95.30;3.00;96358.00;;;;5015172;28;20319;-59
2022/12/01 01:47:28;;;;;;;9.00;3.73;;;4.00;94.70;3.00;96359.00;;;;5017608;28;20200;-59
2022/12/01 01:50:04;;;;;;;3.00;2.80;;;4.00;94.20;3.00;96365.00;;;;5036238;28;20601;-59
2022/12/01 01:52:31;;;;;;;4.40;3.20;;;4.00;94.40;2.90;96360.00;;;;5036508;28;20274;-63
2022/12/01 01:54:59;;;;;;;2.60;2.40;;;3.90;94.60;3.00;96361.00;;;;5036435;28;20246;-59
2022/12/01 01:57:32;;;;;;;2.93;2.73;;;4.00;94.50;2.90;96362.00;;;;5036253;28;20227;-59
2022/12/01 02:00:06;;;;;;;4.07;3.63;;;3.90;94.60;2.90;96353.00;;;;5036100;28;20334;-59
2022/12/01 02:02:39;;;;;;;4.43;3.13;;;3.90;94.50;3.00;96349.00;;;;5018621;28;20204;-59
2022/12/01 02:05:09;;;;;;;5.77;3.80;;;4.00;94.90;2.80;96358.00;;;;5018520;28;20208;-59
2022/12/01 02:07:38;;;;;;;8.07;5.03;;;3.90;94.60;2.80;96354.00;;;;5035907;28;20224;-59
2022/12/01 02:10:08;;;;;;;5.67;3.37;;;3.90;94.80;2.90;96344.00;;;;5018471;28;20226;-59
2022/12/01 02:13:04;;;;;;;2.87;2.43;;;3.90;94.70;2.90;96361.00;;;;5035859;28;20221;-59
2022/12/01 02:15:43;;;;;;;3.90;2.70;;;3.90;94.30;2.90;96350.00;;;;5018630;28;20220;-59
2022/12/01 02:18:28;;;;;;;4.27;3.97;;;3.80;94.70;2.80;96354.00;;;;5018244;28;20702;-59
2022/12/01 02:21:32;;;;;;;3.27;3.07;;;3.80;94.50;2.90;96351.00;;;;5035672;28;20230;-59
2022/12/01 02:24:49;;;;;;;2.90;2.50;;;3.80;94.70;2.60;96347.00;;;;5035769;28;20310;-58
2022/12/01 02:27:36;;;;;;;4.07;3.77;;;3.70;93.80;2.60;96349.00;;;;5018429;28;20201;-59
2022/12/01 02:30:10;;;;;;;4.37;3.20;;;3.60;94.80;2.70;96350.00;;;;5035479;28;20224;-59
2022/12/01 02:33:03;;;;;;;1.80;1.70;;;3.70;94.40;2.70;96349.00;;;;5018490;28;20201;-59
2022/12/01 02:35:41;;;;;;;9.27;5.03;;;3.70;94.30;2.70;96337.00;;;;5035350;28;20236;-58
2022/12/01 02:38:19;;;;;;;3.50;3.27;;;3.70;95.50;2.80;96348.00;;;;5035465;28;20661;-58
2022/12/01 02:40:54;;;;;;;3.90;3.60;;;3.70;94.60;2.70;96317.00;;;;5035387;28;20235;-59
2022/12/01 02:43:32;;;;;;;5.53;3.90;;;3.70;94.40;2.70;96335.00;;;;5035438;28;20215;-58
2022/12/01 02:46:10;;;;;;;3.43;3.13;;;3.60;94.00;2.70;96337.00;;;;5035257;28;20232;-59
2022/12/01 02:48:46;;;;;;;4.23;3.17;;;3.70;94.20;2.70;96332.00;;;;5035364;28;20209;-58
2022/12/01 02:51:18;;;;;;;6.57;4.73;;;3.70;94.80;2.70;96323.00;;;;5017871;28;20261;-58
2022/12/01 02:53:45;;;;;;;3.53;3.23;;;3.70;93.90;2.60;96330.00;;;;5017825;28;20208;-59
2022/12/01 02:56:14;;;;;;;7.07;3.07;;;3.60;94.20;2.60;96333.00;;;;5035112;28;20220;-58
2022/12/01 02:58:42;;;;;;;3.33;3.03;;;3.60;94.40;2.70;96342.00;;;;5017463;28;20232;-59
2022/12/01 03:01:29;;;;;;;2.13;2.03;;;3.60;94.30;2.50;96343.00;;;;5035060;28;20200;-58
2022/12/01 03:04:30;;;;;;;3.30;3.00;;;3.60;94.10;2.50;96330.00;;;;5017969;28;20775;-61
2022/12/01 03:07:09;;;;;;;3.83;3.53;;;3.50;94.80;2.50;96339.00;;;;5017861;28;20210;-59
2022/12/01 03:09:54;;;;;;;3.23;2.93;;;3.50;94.50;2.50;96342.00;;;;5017797;28;20289;-59
2022/12/01 03:12:28;;;;;;;3.37;3.07;;;3.50;94.80;2.50;96354.00;;;;5034974;28;20204;-59
2022/12/01 03:15:08;;;;;;;3.10;2.90;;;3.50;95.00;2.50;96343.00;;;;5034772;28;20231;-59
2022/12/01 03:17:44;;;;;;;3.00;2.87;;;3.50;94.90;2.50;96341.00;;;;5017531;28;20216;-59
2022/12/01 03:20:20;;;;;;;3.70;2.73;;;3.50;95.10;2.50;96330.00;;;;5034729;28;20232;-59
2022/12/01 03:22:52;;;;;;;3.87;3.43;;;3.50;95.00;2.70;96325.00;;;;5017444;28;20345;-59
2022/12/01 03:25:23;;;;;;;3.53;3.23;;;3.60;95.10;2.60;96334.00;;;;5034663;28;20263;-60
2022/12/01 03:27:56;;;;;;;4.70;4.23;;;3.60;94.10;2.50;96330.00;;;;5034794;28;20200;-59
2022/12/01 03:30:24;;;;;;;5.43;3.77;;;3.60;94.20;2.60;96346.00;;;;5034824;28;20215;-58
2022/12/01 03:32:57;;;;;;;5.63;2.80;;;3.60;94.10;2.60;96335.00;;;;5034671;28;20192;-59
2022/12/01 03:35:34;;;;;;;1.73;1.63;;;3.50;93.70;2.50;96339.00;;;;5034706;28;20211;-65
2022/12/01 03:38:12;;;;;;;3.60;2.57;;;3.50;93.70;2.50;96333.00;;;;5017250;28;20243;-61
2022/12/01 03:40:40;;;;;;;3.00;2.80;;;3.50;93.90;2.50;96334.00;;;;5034610;28;20539;-63
2022/12/01 03:43:15;;;;;;;2.33;2.23;;;3.50;93.70;2.50;96336.00;;;;5034483;28;20225;-58
2022/12/01 03:45:53;;;;;;;4.70;3.63;;;3.60;93.80;2.50;96345.00;;;;5017189;28;20507;-59
2022/12/01 03:48:21;;;;;;;4.30;3.90;;;3.60;93.90;2.50;96341.00;;;;5034462;28;20224;-63
2022/12/01 03:51:04;;;;;;;8.90;3.73;;;3.50;93.70;2.50;96340.00;;;;5016867;28;20211;-59
2022/12/01 03:53:47;;;;;;;4.30;3.93;;;3.50;93.90;2.50;96338.00;;;;5016807;28;20666;-59
2022/12/01 03:56:21;;;;;;;2.87;2.63;;;3.50;93.80;2.50;96341.00;;;;5034161;28;20300;-59
2022/12/01 03:58:52;;;;;;;3.07;2.87;;;3.50;94.00;2.50;96335.00;;;;5034163;28;20216;-58
2022/12/01 04:01:19;;;;;;;3.53;3.20;;;3.50;94.00;2.60;96335.00;;;;5034183;28;20196;-59
2022/12/01 04:03:46;;;;;;;4.50;3.40;;;3.50;94.30;2.60;96340.00;;;;5034235;28;20211;-58
2022/12/01 04:06:13;;;;;;;2.90;2.63;;;3.50;94.00;2.50;96340.00;;;;5034263;28;20524;-58
2022/12/01 04:08:40;;;;;;;3.30;3.07;;;3.60;93.80;2.50;96338.00;;;;5033686;28;20196;-59
2022/12/01 04:13:48;;;;;;;5.77;3.37;;;3.50;94.00;2.40;96341.00;;;;5033094;28;20212;-58
2022/12/01 04:16:15;;;;;;;3.70;2.90;;;3.50;94.90;2.50;96334.00;;;;5033796;28;20224;-58
2022/12/01 04:18:41;;;;;;;3.50;3.20;;;3.50;94.40;2.40;96333.00;;;;5017716;28;20616;-59
2022/12/01 04:21:10;;;;;;;3.70;3.37;;;3.40;94.80;2.50;96339.00;;;;5016362;28;20224;-62
2022/12/01 04:26:21;;;;;;;8.63;3.07;;;3.40;94.00;2.40;96342.00;;;;5033948;28;20244;-60
2022/12/01 04:28:50;;;;;;;3.70;3.13;;;3.40;94.00;2.30;96343.00;;;;5034159;28;20203;-59
2022/12/01 04:31:17;;;;;;;6.30;4.60;;;3.40;93.90;2.40;96345.00;;;;5016881;28;20204;-59
2022/12/01 04:33:43;;;;;;;2.97;2.77;;;3.50;94.20;2.40;96329.00;;;;5033750;28;20589;-59
2022/12/01 04:36:12;;;;;;;2.57;2.37;;;3.50;93.60;2.40;96343.00;;;;5033645;28;20289;-59
2022/12/01 04:38:39;;;;;;;2.53;2.30;;;3.30;93.50;2.30;96338.00;;;;5016210;28;20224;-58
2022/12/01 04:41:09;;;;;;;3.47;3.17;;;3.40;93.30;2.30;96342.00;;;;5033745;28;20200;-58
2022/12/01 04:43:36;;;;;;;3.80;3.50;;;3.30;93.40;2.30;96337.00;;;;5033890;28;20663;-59
2022/12/01 04:46:03;;;;;;;4.90;3.17;;;3.30;92.60;2.20;96345.00;;;;5033605;28;20223;-58
2022/12/01 04:48:29;;;;;;;3.83;3.53;;;3.20;92.50;2.30;96337.00;;;;5033568;28;20676;-58
2022/12/01 04:50:56;;;;;;;2.07;1.97;;;3.20;93.30;2.30;96346.00;;;;5033608;28;20231;-58
2022/12/01 04:53:23;;;;;;;4.83;3.43;;;3.30;93.30;2.40;96348.00;;;;5016288;28;20282;-59
2022/12/01 04:55:52;;;;;;;4.93;3.23;;;3.30;93.30;2.30;96351.00;;;;5033440;28;20238;-59
2022/12/01 04:58:18;;;;;;;4.50;2.73;;;3.30;93.10;2.30;96348.00;;;;5033384;28;20299;-59
2022/12/01 05:00:47;;;;;;;3.33;2.33;;;3.30;92.70;2.30;96344.00;;;;5015854;28;20209;-58
2022/12/01 05:03:14;;;;;;;3.97;3.67;;;3.30;92.90;2.20;96340.00;;;;5033707;28;20227;-59
2022/12/01 05:05:40;;;;;;;2.80;2.60;;;3.20;92.60;2.20;96353.00;;;;5033363;28;20208;-58
2022/12/01 05:08:07;;;;;;;5.23;4.73;;;3.20;92.80;2.20;96360.00;;;;5033304;28;20224;-58
2022/12/01 05:10:35;;;;;;;4.40;2.63;;;3.30;92.90;2.20;96364.00;;;;5033365;28;20219;-58
2022/12/01 05:13:02;;;;;;;2.87;2.67;;;3.20;93.00;2.30;96366.00;;;;5015833;28;20309;-61
2022/12/01 05:15:28;;;;;;;3.53;2.67;;;3.30;93.30;2.30;96360.00;;;;5033301;28;20220;-59
2022/12/01 05:17:55;;;;;;;3.33;2.87;;;3.30;93.00;2.20;96365.00;;;;5033195;28;20232;-59
2022/12/01 05:23:23;;;;;;;2.40;2.23;;;3.30;93.20;2.30;96358.00;;;;4975936;28;20319;-59
2022/12/01 05:25:49;;;;;;;9.07;4.77;;;3.30;92.70;2.30;96362.00;;;;5022704;28;20213;-63
2022/12/01 05:28:16;;;;;;;2.63;2.43;;;3.30;92.80;2.30;96358.00;;;;5036467;28;20228;-58
2022/12/01 05:30:43;;;;;;;4.23;3.57;;;3.30;93.10;2.30;96365.00;;;;5018893;28;20514;-58
2022/12/01 05:33:09;;;;;;;5.07;3.70;;;3.30;92.80;2.20;96369.00;;;;5036395;28;20303;-61
2022/12/01 05:35:36;;;;;;;3.73;3.03;;;3.30;92.70;2.20;96362.00;;;;5018859;28;20240;-59
2022/12/01 05:38:06;;;;;;;2.77;2.57;;;3.20;92.50;2.10;96366.00;;;;5018754;28;20204;-59
2022/12/01 05:40:33;;;;;;;2.30;2.10;;;3.20;93.40;2.20;96350.00;;;;5036392;28;20205;-59
2022/12/01 05:42:59;;;;;;;3.13;2.23;;;3.20;92.50;2.10;96361.00;;;;5036354;28;20193;-59
2022/12/01 05:45:27;;;;;;;3.77;2.87;;;3.20;93.00;2.20;96359.00;;;;5036382;28;20219;-59
2022/12/01 05:47:54;;;;;;;3.83;3.53;;;3.20;93.30;2.20;96349.00;;;;5036277;28;20208;-59
2022/12/01 05:50:21;;;;;;;2.13;1.93;;;3.20;93.30;2.20;96371.00;;;;5018841;28;20209;-59
2022/12/01 05:52:48;;;;;;;2.67;2.47;;;3.20;93.20;2.30;96365.00;;;;5018880;28;20208;-60
2022/12/01 05:55:15;;;;;;;3.00;2.70;;;3.20;93.40;2.20;96346.00;;;;5036466;28;20215;-58
2022/12/01 05:57:41;;;;;;;3.73;3.47;;;3.30;92.40;2.20;96359.00;;;;5018865;28;20295;-58
2022/12/01 06:00:09;;;;;;;3.20;3.00;;;3.30;92.80;2.20;96365.00;;;;5036365;28;20647;-61
2022/12/01 06:02:36;;;;;;;7.90;4.30;;;3.20;93.20;2.30;96364.00;;;;5018695;28;20243;-59
2022/12/01 06:05:05;;;;;;;4.63;3.17;;;3.30;93.30;2.30;96358.00;;;;5035936;28;20227;-57
2022/12/01 06:07:34;;;;;;;2.70;2.50;;;3.30;92.80;2.20;96362.00;;;;5035060;28;20265;-58
2022/12/01 06:10:01;;;;;;;3.73;3.17;;;3.20;92.80;2.20;96364.00;;;;5036323;28;20223;-59
2022/12/01 06:12:28;;;;;;;5.03;3.50;;;3.20;93.00;2.20;96347.00;;;;5035932;28;20203;-58
2022/12/01 06:14:54;;;;;;;3.40;3.07;;;3.20;93.10;2.20;96370.00;;;;5035637;28;20655;-58
2022/12/01 06:17:21;;;;;;;2.70;2.60;;;3.20;93.10;2.20;96351.00;;;;5035784;28;20218;-57
2022/12/01 06:19:48;;;;;;;4.20;3.03;;;3.20;93.10;2.30;96357.00;;;;5035820;28;20279;-58
2022/12/01 06:22:14;;;;;;;9.13;3.27;;;3.30;93.00;2.20;96366.00;;;;5018513;28;20530;-57
2022/12/01 06:24:41;;;;;;;4.03;3.13;;;3.40;93.10;2.30;96366.00;;;;5018124;28;20235;-58
2022/12/01 06:27:07;;;;;;;4.77;3.53;;;3.30;93.40;2.20;96361.00;;;;5035628;28;20212;-58
2022/12/01 06:29:34;;;;;;;5.60;3.80;;;3.30;93.10;2.20;96378.00;;;;5035590;28;20238;-58
2022/12/01 06:32:00;;;;;;;3.77;3.10;;;3.20;93.10;2.20;96375.00;;;;5034879;28;20235;-58
2022/12/01 06:34:29;;;;;;;3.90;2.57;;;3.20;93.20;2.20;96374.00;;;;5018139;28;20333;-58
2022/12/01 06:36:56;;;;;;;9.37;4.57;;;3.20;93.30;2.10;96372.00;;;;5018025;28;20236;-58
2022/12/01 06:39:22;;;;;;;3.83;3.37;;;3.20;93.30;2.10;96374.00;;;;5035427;28;20215;-56
2022/12/01 06:41:49;;;;;;;2.57;2.37;;;3.20;93.20;2.10;96372.00;;;;5035572;28;20261;-58
2022/12/01 06:44:15;;;;;;;7.23;4.43;;;3.10;93.70;2.10;96380.00;;;;5018101;28;20206;-60
2022/12/01 06:46:42;;;;;;;3.90;3.60;;;3.10;93.70;2.00;96380.00;;;;5035370;28;20199;-57
2022/12/01 06:49:11;;;;;;;3.10;2.80;;;3.10;93.80;2.00;96378.00;;;;5035574;28;20718;-57
2022/12/01 06:51:39;;;;;;;3.43;2.90;;;3.00;94.20;2.10;96368.00;;;;5018230;28;20266;-59
2022/12/01 06:54:07;;;;;;;3.40;3.10;;;3.10;93.80;2.10;96389.00;;;;5018004;28;20243;-59
2022/12/01 06:56:35;;;;;;;3.60;3.30;;;3.10;93.90;2.10;96387.00;;;;5035120;28;20263;-60
2022/12/01 06:59:04;;;;;;;4.10;3.70;;;3.10;94.20;2.10;96387.00;;;;5017718;28;20211;-60
2022/12/01 07:01:30;;;;;;;3.30;3.00;;;3.10;94.00;2.10;96383.00;;;;5035298;28;20203;-64
2022/12/01 07:03:57;;;;;;;4.20;3.83;;;3.20;94.30;2.10;96388.00;;;;5035265;28;20196;-59
2022/12/01 07:06:23;;;;;;;3.53;3.33;;;3.10;94.20;2.10;96389.00;;;;5035283;28;20195;-59
2022/12/01 07:08:51;;;;;;;3.63;2.97;;;3.20;94.30;2.20;96389.00;;;;5035032;28;20199;-59
2022/12/01 07:11:18;;;;;;;4.17;3.80;;;3.20;94.60;2.20;96398.00;;;;5034882;28;20281;-58
2022/12/01 07:13:45;;;;;;;3.40;2.43;;;3.20;94.40;2.20;96402.00;;;;5034922;28;20249;-58
2022/12/01 07:16:12;;;;;;;2.80;2.57;;;3.20;94.10;2.20;96402.00;;;;5017382;28;20289;-61
2022/12/01 07:18:39;;;;;;;4.07;3.67;;;3.20;94.00;2.30;96393.00;;;;5035159;28;20196;-59
2022/12/01 07:21:11;;;;;;;3.37;3.17;;;3.30;93.70;2.30;96398.00;;;;5034943;28;20310;-59
2022/12/01 07:23:37;;;;;;;7.37;4.03;;;3.20;93.60;2.20;96400.00;;;;5034882;28;20532;-59
2022/12/01 07:26:07;;;;;;;2.77;2.57;;;3.30;93.80;2.20;96413.00;;;;5034666;28;20224;-57
2022/12/01 07:28:34;;;;;;;4.27;3.87;;;3.20;93.90;2.20;96412.00;;;;5034963;28;20303;-62
2022/12/01 07:31:03;;;;;;;2.83;2.63;;;3.20;93.90;2.10;96402.00;;;;5034617;28;20208;-57
2022/12/01 07:33:30;;;;;;;4.90;3.90;;;3.20;93.60;2.20;96402.00;;;;5017477;28;20224;-59
2022/12/01 07:35:56;;;;;;;3.33;3.13;;;3.20;93.80;2.20;96415.00;;;;5017380;28;20235;-59
2022/12/01 07:38:23;;;;;;;5.40;2.97;;;3.20;93.70;2.20;96412.00;;;;5034550;28;20751;-57
2022/12/01 07:40:49;;;;;;;3.00;2.80;;;3.20;93.80;2.20;96429.00;;;;5017130;28;20200;-57
2022/12/01 07:43:15;;;;;;;3.43;3.23;;;3.30;94.20;2.30;96426.00;;;;5016565;28;20231;-59
2022/12/01 07:45:43;;;;;;;6.77;3.47;;;3.30;94.20;2.30;96413.00;;;;5016218;28;20204;-57
2022/12/01 07:48:09;;;;;;;3.10;2.90;;;3.30;93.90;2.40;96426.00;;;;5017080;28;20228;-57
2022/12/01 07:50:35;;;;;;;4.07;3.30;;;3.30;93.90;2.10;96404.00;;;;5034587;28;20210;-57
2022/12/01 07:53:02;;;;;;;4.57;3.37;;;3.30;93.20;2.30;96430.00;;;;5034289;28;20203;-55
2022/12/01 07:55:28;;;;;;;4.60;3.73;;;3.20;93.70;2.80;96427.00;;;;5034027;28;20228;-57
2022/12/01 07:57:55;;;;;;;4.10;3.80;;;3.50;98.90;2.80;96435.00;;;;5016827;28;20538;-57
2022/12/01 08:00:22;;;;;;;5.03;4.60;;;3.70;97.20;2.80;96435.00;;;;5034106;28;20228;-57
2022/12/01 08:02:49;;;;;;;3.80;3.50;;;3.70;95.80;2.80;96427.00;;;;5016785;28;20207;-57
2022/12/01 08:05:15;;;;;;;4.57;4.17;;;3.70;95.40;2.90;96425.00;;;;5016819;28;20205;-58
2022/12/01 08:07:42;;;;;;;5.97;5.37;;;3.80;96.00;3.00;96419.00;;;;5016633;28;20223;-57
2022/12/01 08:10:09;;;;;;;5.47;4.87;;;3.90;94.60;3.20;96434.00;;;;5016539;28;20200;-57
2022/12/01 08:12:36;;;;;;;3.17;2.93;;;4.00;94.10;3.20;96425.00;;;;5016907;28;20221;-59
2022/12/01 08:15:02;;;;;;;3.13;2.93;;;4.10;93.70;3.10;96431.00;;;;5016871;28;20542;-61
2022/12/01 08:17:29;;;;;;;1.97;1.87;;;4.10;91.70;3.00;96424.00;;;;5034141;28;20587;-58
2022/12/01 08:19:56;;;;;;;3.63;3.33;;;4.00;90.50;2.90;96432.00;;;;5016788;28;20307;-58
2022/12/01 08:22:22;;;;;;;4.70;3.63;;;3.90;90.80;2.70;96427.00;;;;5033960;28;20224;-58
2022/12/01 08:24:49;;;;;;;5.27;4.50;;;3.70;91.30;2.60;96428.00;;;;5034700;28;20224;-58
2022/12/01 08:27:15;;;;;;;6.07;5.47;;;3.60;91.70;2.50;96420.00;;;;5016638;28;20234;-58
2022/12/01 08:29:41;;;;;;;3.27;3.00;;;3.50;92.10;2.50;96433.00;;;;5016439;28;20236;-59
2022/12/01 08:32:08;;;;;;;6.70;4.43;;;3.50;92.20;2.40;96427.00;;;;5033817;28;20204;-60
2022/12/01 08:34:37;;;;;;;2.87;2.67;;;3.50;92.90;2.40;96430.00;;;;5016449;28;20205;-59
2022/12/01 08:37:04;;;;;;;4.23;3.93;;;3.50;93.20;2.40;96443.00;;;;5016536;28;20247;-58
2022/12/01 08:39:30;;;;;;;4.43;3.30;;;3.40;93.20;2.50;96439.00;;;;5034171;28;20281;-61
2022/12/01 08:41:57;;;;;;;2.90;2.70;;;3.50;94.50;2.50;96441.00;;;;5034053;28;20224;-59
2022/12/01 08:44:26;;;;;;;4.57;4.03;;;3.50;93.50;2.50;96438.00;;;;5033732;28;20192;-58
2022/12/01 08:46:53;;;;;;;6.60;4.83;;;3.50;93.70;2.50;96457.00;;;;5033558;28;20224;-58
2022/12/01 08:49:19;;;;;;;3.83;3.47;;;3.50;93.20;2.40;96451.00;;;;5033562;28;20205;-59
2022/12/01 08:51:46;;;;;;;3.43;3.10;;;3.40;93.40;2.40;96437.00;;;;5034040;28;20196;-62
2022/12/01 08:54:13;;;;;;;2.97;2.77;;;3.40;93.30;2.40;96439.00;;;;5033772;28;20197;-61
2022/12/01 08:56:43;;;;;;;4.03;3.63;;;3.50;93.60;2.30;96449.00;;;;5015704;28;20228;-58
2022/12/01 08:59:10;;;;;;;3.33;3.07;;;3.40;93.50;2.40;96442.00;;;;5033509;28;20235;-60
2022/12/01 09:01:50;;;;;;;3.93;3.40;;;3.40;94.00;2.40;96438.00;;;;5033872;28;20215;-58
2022/12/01 09:04:18;;;;;;;8.63;4.50;;;3.40;93.60;2.40;96440.00;;;;5033493;28;20224;-64
2022/12/01 09:06:47;;;;;;;3.60;3.30;;;3.40;93.50;2.40;96449.00;;;;5016225;28;20575;-57
2022/12/01 09:09:16;;;;;;;1.93;1.83;;;3.40;93.70;2.30;96448.00;;;;5016117;28;20205;-58
2022/12/01 09:11:44;;;;;;;2.83;2.63;;;3.40;94.20;2.30;96453.00;;;;5032701;28;20203;-58
2022/12/01 09:14:14;;;;;;;5.07;3.33;;;3.40;94.40;2.40;96443.00;;;;5016045;28;20218;-58
2022/12/01 09:16:42;;;;;;;3.63;3.33;;;3.40;94.40;2.40;96455.00;;;;5033384;28;20285;-58
2022/12/01 09:19:11;;;;;;;5.03;2.73;;;3.40;94.80;2.50;96446.00;;;;5032411;28;20323;-58
2022/12/01 09:21:38;;;;;;;3.13;2.83;;;3.40;95.00;2.50;96447.00;;;;5032282;28;20224;-60
2022/12/01 09:24:06;;;;;;;3.43;3.13;;;3.40;94.10;2.50;96456.00;;;;5015791;28;20227;-58
2022/12/01 09:26:34;;;;;;;8.10;3.60;;;3.40;94.00;2.40;96439.00;;;;5016164;28;20211;-63
2022/12/01 09:29:04;;;;;;;2.67;2.47;;;3.50;93.30;2.40;96460.00;;;;5033188;28;20207;-58
2022/12/01 09:31:31;;;;;;;3.17;2.93;;;3.40;94.20;2.40;96446.00;;;;5015898;28;20593;-58
2022/12/01 09:34:01;;;;;;;2.90;2.70;;;3.40;94.50;2.40;96462.00;;;;5015506;28;20224;-58
2022/12/01 09:36:31;;;;;;;3.60;3.30;;;3.40;94.60;2.50;96456.00;;;;5033069;28;20228;-58
2022/12/01 09:38:58;;;;;;;3.97;3.33;;;3.50;94.40;2.50;96455.00;;;;5033116;28;20671;-58
2022/12/01 09:41:32;;;;;;;8.23;2.90;;;3.50;93.90;2.50;96460.00;;;;5033046;28;20216;-58
2022/12/01 09:44:12;;;;;;;3.17;2.53;;;3.50;94.10;2.50;96450.00;;;;5032847;28;20275;-58
2022/12/01 09:46:46;;;;;;;5.30;3.73;;;3.60;93.90;2.40;96429.00;;;;5015547;28;20210;-58
2022/12/01 09:49:18;;;;;;;4.87;3.13;;;3.40;94.20;2.50;96457.00;;;;5032968;28;20216;-58
2022/12/01 09:51:45;;;;;;;4.30;3.10;;;3.50;94.10;2.40;96440.00;;;;5032958;28;20231;-58
2022/12/01 09:54:14;;;;;;;5.27;4.20;;;3.40;93.90;2.40;96448.00;;;;5015672;28;20288;-58
2022/12/01 09:56:49;;;;;;;3.60;3.30;;;3.40;94.40;2.50;96436.00;;;;5032658;28;20323;-61
2022/12/01 09:59:22;;;;;;;3.40;3.10;;;3.40;94.40;2.50;96448.00;;;;5032841;28;20215;-62
2022/12/01 10:01:58;;;;;;;2.80;2.60;;;3.50;94.50;2.50;96442.00;;;;5015230;28;20192;-58
2022/12/01 10:04:35;;;;;;;4.37;3.97;;;3.50;94.20;2.60;96420.00;;;;5015675;28;20272;-58
2022/12/01 10:07:05;;;;;;;3.17;2.57;;;3.50;94.10;2.60;96428.00;;;;5015983;28;20653;-58
2022/12/01 10:09:40;;;;;;;6.03;3.53;;;3.60;93.90;2.40;96430.00;;;;5036201;28;20653;-58
2022/12/01 10:12:14;;;;;;;3.73;3.43;;;3.50;93.10;2.50;96424.00;;;;5036265;28;20610;-58
2022/12/01 10:14:45;;;;;;;5.73;3.40;;;3.50;94.40;2.70;96419.00;;;;5018447;28;20227;-58
2022/12/01 10:17:27;;;;;;;6.97;4.73;;;3.60;94.50;2.60;96417.00;;;;5035763;28;20269;-58
2022/12/01 10:20:05;;;;;;;2.63;1.80;;;3.50;93.60;2.60;96419.00;;;;5035861;28;20227;-59
2022/12/01 10:23:25;;;;;;;4.07;2.90;;;3.60;93.10;2.60;96416.00;;;;5035818;28;20218;-58
2022/12/01 10:25:57;;;;;;;5.37;2.73;;;3.50;94.60;2.70;96407.00;;;;5018327;28;20242;-62
2022/12/01 10:29:00;;;;;;;3.70;3.40;;;3.60;95.10;2.60;96402.00;;;;5035664;28;20207;-58
2022/12/01 10:31:39;;;;;;;3.10;2.43;;;3.60;94.50;2.60;96410.00;;;;5035650;28;20285;-58
2022/12/01 10:34:16;;;;;;;2.97;2.67;;;3.50;95.10;2.60;96391.00;;;;5018386;28;20216;-58
2022/12/01 10:36:42;;;;;;;3.00;2.73;;;3.50;95.10;2.70;96417.00;;;;5018145;28;20365;-58
2022/12/01 10:39:18;;;;;;;4.40;4.10;;;3.60;95.20;2.70;96390.00;;;;5018272;28;20208;-62
2022/12/01 10:41:47;;;;;;;6.97;3.73;;;3.60;95.10;2.70;96401.00;;;;5018558;28;20226;-60
2022/12/01 10:44:18;;;;;;;4.10;3.80;;;3.70;94.70;2.70;96406.00;;;;5035614;28;20295;-58
2022/12/01 10:46:50;;;;;;;13.00;4.10;;;3.70;94.80;2.60;96409.00;;;;5035507;28;20583;-58
2022/12/01 10:49:19;;;;;;;3.47;3.17;;;3.70;94.60;2.60;96405.00;;;;5035504;28;20274;-59
2022/12/01 10:51:57;;;;;;;3.43;3.17;;;3.60;94.60;2.70;96405.00;;;;5035450;28;20203;-59
2022/12/01 10:54:34;;;;;;;3.33;3.03;;;3.70;94.70;2.70;96397.00;;;;5035506;28;20216;-60
2022/12/01 10:57:02;;;;;;;3.93;3.63;;;3.70;94.30;2.70;96392.00;;;;5035383;28;20231;-59
2022/12/01 10:59:35;;;;;;;3.03;2.83;;;3.70;94.80;2.70;96369.00;;;;5035093;28;20204;-57
2022/12/01 11:02:15;;;;;;;2.73;2.53;;;3.70;94.70;2.80;96396.00;;;;5035252;28;20212;-57
2022/12/01 11:04:51;;;;;;;3.60;3.30;;;3.80;94.90;2.80;96396.00;;;;5034983;28;20214;-59
2022/12/01 11:07:26;;;;;;;2.60;2.40;;;3.70;94.60;2.80;96374.00;;;;5035150;28;20196;-60
2022/12/01 11:10:17;;;;;;;2.30;2.20;;;3.80;94.70;2.80;96399.00;;;;5035142;28;20223;-57
2022/12/01 11:12:51;;;;;;;2.53;2.43;;;3.80;94.50;2.90;96389.00;;;;5035130;28;20231;-58
2022/12/01 11:15:24;;;;;;;4.10;3.77;;;3.90;95.60;2.80;96385.00;;;;5035185;28;20196;-58
2022/12/01 11:17:59;;;;;;;3.63;3.03;;;3.80;94.40;2.80;96389.00;;;;5035250;28;20235;-60
2022/12/01 11:20:32;;;;;;;4.03;2.50;;;3.80;95.20;2.90;96390.00;;;;5035114;28;20196;-59
2022/12/01 11:23:24;;;;;;;5.33;3.53;;;3.80;94.00;3.00;96384.00;;;;5034922;28;20299;-57
2022/12/01 11:26:05;;;;;;;7.63;5.80;;;3.90;94.10;3.10;96384.00;;;;5017431;28;20274;-57
2022/12/01 11:28:35;;;;;;;3.57;3.27;;;4.00;93.60;3.00;96387.00;;;;5034761;28;20208;-59
2022/12/01 11:31:06;;;;;;;3.00;2.80;;;4.00;93.30;3.00;96381.00;;;;5034944;28;20204;-57
2022/12/01 11:33:44;;;;;;;3.37;3.17;;;4.00;93.20;3.00;96376.00;;;;5034788;28;20200;-57